createdAt,value
2019-02-18T00:02:29.477Z,3.60
2019-02-18T00:07:33.035Z,3.40
2019-02-18T00:12:36.574Z,2.90
2019-02-18T00:17:39.986Z,3.40
2019-02-18T00:22:43.406Z,4.20
2019-02-18T00:27:46.835Z,2.83
2019-02-18T00:32:50.241Z,3.43
2019-02-18T00:37:53.639Z,3.60
2019-02-18T00:42:57.103Z,3.57
2019-02-18T00:48:00.556Z,4.07
2019-02-18T00:53:04.221Z,2.33
2019-02-18T00:58:07.462Z,3.50
2019-02-18T01:03:11.065Z,2.83
2019-02-18T01:08:14.591Z,3.07
2019-02-18T01:13:18.095Z,3.03
2019-02-18T01:18:21.581Z,3.87
2019-02-18T01:23:26.030Z,2.83
2019-02-18T01:28:29.672Z,3.23
2019-02-18T01:33:33.234Z,3.67
2019-02-18T01:38:36.644Z,3.47
2019-02-18T01:43:40.167Z,3.13
2019-02-18T01:48:43.564Z,3.20
2019-02-18T01:53:47.036Z,3.10
2019-02-18T01:58:50.563Z,3.67
2019-02-18T02:03:53.990Z,3.00
2019-02-18T02:08:57.460Z,3.20
2019-02-18T02:14:00.887Z,3.73
2019-02-18T02:19:04.389Z,3.27
2019-02-18T02:24:07.811Z,2.30
2019-02-18T02:29:11.220Z,3.37
2019-02-18T02:34:15.212Z,3.22
2019-02-18T02:39:18.635Z,2.43
2019-02-18T02:44:22.169Z,3.98
2019-02-18T02:49:25.594Z,2.70
2019-02-18T02:54:29.158Z,3.50
2019-02-18T02:59:32.554Z,3.43
2019-02-18T03:04:36.022Z,3.27
2019-02-18T03:09:39.443Z,3.13
2019-02-18T03:14:42.997Z,3.70
2019-02-18T03:19:46.495Z,3.13
2019-02-18T03:25:01.158Z,2.73
2019-02-18T03:30:23.613Z,2.60
2019-02-18T03:35:27.028Z,2.63
2019-02-18T03:40:30.617Z,3.73
2019-02-18T03:45:34.036Z,2.80
2019-02-18T03:50:37.596Z,3.53
2019-02-18T03:55:41.017Z,2.63
2019-02-18T04:00:44.454Z,2.87
2019-02-18T04:05:47.968Z,2.90
2019-02-18T04:10:51.592Z,2.90
2019-02-18T04:15:57.011Z,2.20
2019-02-18T04:21:00.475Z,2.87
2019-02-18T04:26:03.979Z,3.63
2019-02-18T04:31:07.382Z,2.03
2019-02-18T04:36:11.913Z,2.47
2019-02-18T04:41:15.408Z,2.40
2019-02-18T04:46:19.058Z,2.83
2019-02-18T04:51:22.465Z,2.73
2019-02-18T04:56:25.939Z,2.93
2019-02-18T05:01:29.451Z,3.47
2019-02-18T05:06:33.134Z,3.27
2019-02-18T05:11:36.754Z,2.60
2019-02-18T05:16:40.229Z,2.37
2019-02-18T05:21:43.799Z,3.00
2019-02-18T05:26:47.581Z,2.80
2019-02-18T05:31:53.204Z,2.63
2019-02-18T05:36:56.681Z,3.23
2019-02-18T05:42:00.099Z,2.53
2019-02-18T05:47:03.722Z,2.77
2019-02-18T05:52:07.121Z,2.47
2019-02-18T05:57:10.851Z,3.13
2019-02-18T06:02:15.531Z,2.50
2019-02-18T06:07:19.130Z,1.93
2019-02-18T06:12:22.629Z,3.47
2019-02-18T06:17:26.477Z,2.80
2019-02-18T06:22:30.218Z,3.30
2019-02-18T06:27:33.735Z,2.73
2019-02-18T06:32:37.156Z,2.60
2019-02-18T06:37:40.578Z,3.57
2019-02-18T06:42:44.151Z,2.63
2019-02-18T06:47:47.645Z,3.30
2019-02-18T06:52:51.248Z,2.80
2019-02-18T06:58:00.110Z,3.07
2019-02-18T07:05:09.974Z,2.92
2019-02-18T07:10:18.551Z,3.00
2019-02-18T07:15:22.104Z,4.27
2019-02-18T07:20:25.654Z,3.40
2019-02-18T07:25:29.114Z,3.03
2019-02-18T07:30:32.616Z,3.13
2019-02-18T07:35:36.120Z,3.90
2019-02-18T07:40:39.624Z,3.43
2019-02-18T07:45:43.120Z,3.67
2019-02-18T07:50:46.548Z,4.67
2019-02-18T07:55:49.990Z,4.50
2019-02-18T08:00:53.484Z,5.57
2019-02-18T08:05:56.905Z,4.97
2019-02-18T08:11:00.414Z,5.50
2019-02-18T08:16:03.979Z,4.30
2019-02-18T08:21:07.037Z,5.33
2019-02-18T08:26:10.469Z,5.13
2019-02-18T08:31:13.974Z,5.23
2019-02-18T08:36:17.462Z,4.93
2019-02-18T08:41:20.950Z,2.73
2019-02-18T08:46:24.366Z,3.27
2019-02-18T08:51:27.800Z,3.57
2019-02-18T08:56:31.319Z,4.27
2019-02-18T09:01:34.854Z,4.80
2019-02-18T09:06:38.348Z,3.03
2019-02-18T09:11:41.847Z,4.50
2019-02-18T09:16:45.346Z,3.93
2019-02-18T09:21:48.907Z,4.40
2019-02-18T09:26:52.377Z,4.20
2019-02-18T09:31:55.901Z,5.13
2019-02-18T09:36:59.434Z,4.57
2019-02-18T09:42:02.884Z,4.85
2019-02-18T09:47:06.304Z,5.80
2019-02-18T09:52:09.730Z,4.80
2019-02-18T09:57:13.296Z,4.87
2019-02-18T10:02:16.811Z,5.33
2019-02-18T10:07:20.364Z,4.07
2019-02-18T10:12:23.787Z,4.33
2019-02-18T10:17:27.193Z,4.13
2019-02-18T10:22:30.684Z,5.40
2019-02-18T10:27:34.362Z,5.20
2019-02-18T10:32:37.933Z,5.33
2019-02-18T10:37:54.814Z,6.10
2019-02-18T10:42:51.105Z,6.17
2019-02-18T10:47:54.677Z,5.83
2019-02-18T10:52:58.316Z,5.73
2019-02-18T10:58:01.890Z,6.30
2019-02-18T11:03:05.451Z,6.80
2019-02-18T11:08:08.921Z,5.27
2019-02-18T11:13:12.352Z,5.87
2019-02-18T11:18:15.859Z,5.93
2019-02-18T11:23:20.316Z,6.47
2019-02-18T11:28:23.957Z,6.43
2019-02-18T11:33:27.490Z,6.77
2019-02-18T11:38:31.063Z,7.40
2019-02-18T11:43:34.470Z,6.50
2019-02-18T11:48:37.987Z,7.70
2019-02-18T11:53:41.540Z,7.53
2019-02-18T11:58:44.996Z,7.23
2019-02-18T12:03:48.711Z,7.03
2019-02-18T12:08:52.354Z,8.50
2019-02-18T12:13:55.835Z,8.23
2019-02-18T12:18:59.260Z,7.90
2019-02-18T12:24:02.653Z,7.50
2019-02-18T12:29:06.068Z,7.00
2019-02-18T12:34:09.464Z,7.30
2019-02-18T12:39:14.811Z,7.13
2019-02-18T12:44:18.254Z,7.05
2019-02-18T12:49:21.767Z,6.60
2019-02-18T12:54:25.209Z,6.90
2019-02-18T12:59:29.136Z,6.90
2019-02-18T13:04:32.323Z,6.37
2019-02-18T13:09:35.857Z,6.53
2019-02-18T13:14:39.265Z,6.73
2019-02-18T13:19:42.756Z,7.47
2019-02-18T13:24:46.154Z,7.87
2019-02-18T13:29:49.657Z,6.27
2019-02-18T13:34:53.079Z,6.73
2019-02-18T13:39:56.515Z,6.07
2019-02-18T13:45:00.039Z,6.37
2019-02-18T13:50:03.504Z,5.93
2019-02-18T13:55:07.231Z,5.93
2019-02-18T14:00:17.800Z,5.80
2019-02-18T14:05:21.360Z,5.47
2019-02-18T14:10:24.756Z,6.10
2019-02-18T14:15:28.260Z,5.40
2019-02-18T14:20:31.690Z,6.43
2019-02-18T14:25:35.135Z,5.70
2019-02-18T14:30:38.622Z,5.20
2019-02-18T14:35:42.112Z,5.53
2019-02-18T14:40:45.564Z,5.13
2019-02-18T14:45:49.081Z,4.87
2019-02-18T14:50:56.709Z,4.37
2019-02-18T14:55:56.044Z,4.50
2019-02-18T15:00:59.579Z,3.73
2019-02-18T15:06:03.158Z,4.33
2019-02-18T15:11:07.791Z,4.83
2019-02-18T15:16:11.239Z,4.63
2019-02-18T15:21:14.899Z,4.67
2019-02-18T15:26:18.367Z,4.70
2019-02-18T15:31:21.933Z,4.47
2019-02-18T15:36:25.398Z,4.73
2019-02-18T15:41:29.087Z,5.00
2019-02-18T15:46:32.540Z,4.47
2019-02-18T15:51:36.009Z,4.57
2019-02-18T15:56:39.453Z,4.77
2019-02-18T16:01:42.947Z,5.20
2019-02-18T16:06:46.509Z,4.13
2019-02-18T16:11:50.307Z,5.07
2019-02-18T16:16:53.846Z,4.57
2019-02-18T16:21:57.424Z,3.97
2019-02-18T16:27:00.965Z,4.57
2019-02-18T16:32:04.565Z,8.87
2019-02-18T16:37:08.169Z,7.60
2019-02-18T16:42:11.712Z,7.70
2019-02-18T16:47:15.175Z,5.70
2019-02-18T16:52:18.611Z,4.63
2019-02-18T16:57:22.194Z,4.73
2019-02-18T17:02:25.621Z,5.20
2019-02-18T17:07:29.142Z,4.83
2019-02-18T17:12:32.670Z,4.20
2019-02-18T17:17:36.096Z,3.67
2019-02-18T17:22:39.566Z,3.97
2019-02-18T17:27:43.087Z,4.57
2019-02-18T17:32:46.529Z,5.13
2019-02-18T17:37:49.993Z,4.50
2019-02-18T17:42:53.509Z,6.17
2019-02-18T17:47:56.994Z,5.07
2019-02-18T17:53:00.502Z,5.20
2019-02-18T17:58:03.987Z,6.00
2019-02-18T18:03:07.549Z,4.73
2019-02-18T18:08:11.172Z,5.60
2019-02-18T18:13:14.601Z,5.07
2019-02-18T18:18:18.053Z,5.90
2019-02-18T18:23:21.548Z,5.60
2019-02-18T18:28:25.659Z,6.47
2019-02-18T18:33:29.566Z,6.10
2019-02-18T18:38:33.197Z,5.07
2019-02-18T18:43:36.916Z,5.00
2019-02-18T18:48:40.677Z,5.13
2019-02-18T18:53:44.206Z,7.57
2019-02-18T18:58:47.843Z,5.97
2019-02-18T19:03:51.406Z,6.53
2019-02-18T19:08:55.583Z,5.80
2019-02-18T19:13:59.091Z,6.80
2019-02-18T19:19:02.930Z,6.60
2019-02-18T19:24:06.136Z,6.47
2019-02-18T19:29:09.912Z,6.10
2019-02-18T19:34:13.725Z,6.65
2019-02-18T19:39:17.587Z,4.83
2019-02-18T19:44:22.048Z,5.67
2019-02-18T19:49:25.812Z,5.30
2019-02-18T19:54:29.428Z,5.90
2019-02-18T19:59:33.176Z,6.00
2019-02-18T20:04:36.748Z,5.53
2019-02-18T20:09:40.401Z,6.37
2019-02-18T20:14:44.216Z,5.80
2019-02-18T20:19:47.744Z,5.50
2019-02-18T20:24:51.305Z,6.62
2019-02-18T20:29:54.787Z,5.00
2019-02-18T20:34:58.750Z,4.43
2019-02-18T20:40:02.339Z,4.37
2019-02-18T20:45:06.426Z,4.03
2019-02-18T20:50:10.533Z,5.13
2019-02-18T20:55:14.582Z,4.30
2019-02-18T21:00:19.721Z,5.00
2019-02-18T21:05:26.352Z,4.10
2019-02-18T21:10:29.886Z,3.67
2019-02-18T21:15:33.659Z,4.83
2019-02-18T21:20:37.224Z,6.60
2019-02-18T21:25:40.693Z,5.20
2019-02-18T21:30:44.160Z,5.07
2019-02-18T21:35:47.598Z,4.13
2019-02-18T21:40:51.038Z,5.23
2019-02-18T21:45:54.533Z,4.50
2019-02-18T21:50:57.968Z,4.57
2019-02-18T21:56:01.548Z,4.90
2019-02-18T22:01:05.426Z,5.47
2019-02-18T22:06:09.306Z,5.83
2019-02-18T22:11:13.182Z,5.53
2019-02-18T22:16:16.979Z,7.20
2019-02-18T22:21:21.512Z,8.63
2019-02-18T22:26:25.277Z,5.25
2019-02-18T22:31:28.758Z,4.60
2019-02-18T22:36:32.195Z,4.90
2019-02-18T22:41:35.612Z,3.87
2019-02-18T22:46:39.126Z,4.70
2019-02-18T22:51:42.729Z,4.83
2019-02-18T22:56:46.253Z,4.00
2019-02-18T23:01:49.645Z,3.73
2019-02-18T23:06:53.038Z,3.95
2019-02-18T23:11:56.428Z,4.00
2019-02-18T23:16:59.856Z,4.03
2019-02-18T23:22:03.267Z,6.33
2019-02-18T23:27:06.716Z,4.03
2019-02-18T23:32:10.128Z,4.25
2019-02-18T23:37:13.536Z,3.83
2019-02-18T23:42:16.938Z,4.00
2019-02-18T23:47:20.425Z,3.57
2019-02-18T23:52:23.839Z,3.93
2019-02-18T23:57:27.255Z,5.00
